ADDS METAR Data INFO
IDs: Format: Raw Decoded Include TAF

Data at: 1512 UTC 21 Feb 2018

KOMA 211452Z 35003KT 10SM BKN250 M12/M16 A3065 RMK AO2 SLP399 T11171161 52020
KOMA 211352Z 34004KT 10SM FEW180 BKN250 M13/M16 A3062 RMK AO2 SLP390 T11281156
KOMA 211252Z 07003KT 10SM SCT250 M13/M16 A3062 RMK AO2 SLP389 T11331161
KOMA 201508Z 31016KT 10SM SCT016 BKN031 M08/M12 A3007 RMK AO2 T10831117
KOMA 201452Z 31017KT 10SM BKN016 BKN055 M08/M12 A3007 RMK AO2 SLP196 60000 I3000 T10831117 53038
KOMA 201429Z 31017KT 10SM BKN016 BKN055 M08/M11 A3004 RMK AO2 T10831111
KOMA 201352Z 31014G23KT 10SM SCT016 BKN055 M07/M10 A3000 RMK AO2 SLP172 T10721100
KOMA 201318Z 31014KT 10SM FEW014 SCT034 OVC050 M07/M09 A2998 RMK AO2 T10721094
KOMA 201252Z 31011KT 10SM BKN013 OVC020 M07/M09 A2998 RMK AO2 FZDZE31 SLP165 P0000 I1000 T10721094
KOMA 201232Z 32014KT 10SM OVC011 M07/M09 A2994 RMK AO2 FZDZE31 P0000 I1000 T10671089
KOMA 201152Z 32012KT 7SM -FZDZ OVC010 M06/M08 A2995 RMK AO2 FZRAE01FZDZB01 SLP155 P0000 60006 70007 I1000 I6001 T10611078 11050 21067 53017
KOMA 201102Z 32012KT 5SM -FZDZ BR OVC011 M06/M08 A2993 RMK AO2 FZRAE01FZDZB01 P0000 I1000 T10611078
KOMA 201052Z 33011KT 3SM -FZRA BR OVC009 M06/M08 A2992 RMK AO2 FZDZE23FZRAB23SNE22 SLP144 P0000 I1001 T10611078
KOMA 201024Z 32012KT 3SM -FZRA BR OVC009 M06/M08 A2990 RMK AO2 FZDZE23FZRAB23SNE22 P0000 I1000 T10611078
KOMA 200952Z 33013KT 5SM -FZDZSN BR OVC009 M06/M08 A2990 RMK AO2 FZDZB31 CIG 007V012 SLP137 P0000 I1000 T10611078
KOMA 200931Z 33010KT 5SM -FZDZSN BR OVC008 M06/M07 A2989 RMK AO2 FZDZB31 CIG 007V014 P0000 I1000 T10561072
KOMA 200852Z 32011KT 4SM -SN BR FEW010 BKN013 OVC030 M06/M07 A2990 RMK AO2 FZRAB06E21SNB02 SLP136 P0000 60006 I1000 I3000 T10561072 53014
KOMA 200846Z 33010KT 3SM -SN BR FEW010 BKN021 OVC030 M06/M07 A2990 RMK AO2 FZRAB06E21SNB02 P0000 I1000
KOMA 200822Z 33009KT 1 1/2SM -SN BR BKN011 OVC020 M06/M07 A2990 RMK AO2 FZRAB06E21SNB02 P0000 I1000 T10561072
KOMA 200815Z 32010KT 5SM -FZRASN BR BKN011 BKN021 OVC025 M06/M07 A2990 RMK AO2 FZRAB06SNB02 P0000 I1000 T10561072
KOMA 200806Z 33011KT 9SM -FZRASN SCT011 BKN022 OVC029 M06/M08 A2989 RMK AO2 FZRAB06SNB02 P0000 I1000 T10561078
KOMA 200805Z 34012KT 9SM -SN SCT011 BKN022 OVC029 M06/M08 A2989 RMK AO2 SNB02 P0000 T10561078
KOMA 200752Z 32011KT 9SM BKN011 BKN029 OVC034 M06/M07 A2988 RMK AO2 SNE49 SLP130 P0000 T10561072
KOMA 200745Z 33012KT 7SM -SN SCT011 BKN028 OVC034 M06/M08 A2987 RMK AO2 P0000 T10561078
KOMA 200708Z 33008KT 3SM -SN BR FEW016 SCT029 OVC035 M05/M07 A2985 RMK AO2 LTG DSNT SE P0000 T10501067
KOMA 200652Z 32009KT 2SM -SN BR SCT013 BKN029 OVC035 M05/M06 A2985 RMK AO2 LTG DSNT E AND S PLB0558E03B09E22 TSE49 SLP121 OCNL LTGIC DSNT NE CB DSNT NE MOV NE TS MOV NE P0006 T10501061
KOMA 200632Z 32007KT 1 1/2SM -TSSN BKN013CB OVC026 M05/M06 A2985 RMK AO2 LTG DSNT NE-SE PLB0558E03B09E22 OCNL LTGIC NE-SE TS NE-SE MOV NE P0006 T10501061
KOMA 200623Z 33005KT 3SM -TSSN SCT009 BKN016CB OVC026 M05/M06 A2986 RMK AO2 LTG DSNT ALQDS PLB0558E03B09E22 OCNL LTGIC E-SW TS E-SW MOV NE P0005 T10501061
KOMA 200619Z 31004KT 1 1/2SM -TSSNPL SCT009 BKN016CB OVC026 M05/M06 A2987 RMK AO2 LTG DSNT ALQDS PLB0558E03B09 OCNL LTGIC E-SW TS E-SW MOV NE P0005 T10501061
KOMA 200610Z 31007KT 3/4SM R14R/5000VP6000FT -TSSNPL SCT009 BKN016CB OVC026 M05/M06 A2987 RMK AO2 LTG DSNT N AND NE AND S PLB0558E03B09 OCNL LTGIC E-SW TS E-SW MOV NE P0001 T10501061
KOMA 200607Z 34005KT 3/4SM R14R/5000VP6000FT -TSSN SCT009 BKN016CB OVC026 M05/M06 A2984 RMK AO2 LTG DSNT N AND NE AND S PLB0558E03 OCNL LTGIC E-SW TS E-SW MOV NE P0001 T10501061
KOMA 200604Z 36008KT 2SM R14R/5000VP6000FT -TSSN SCT005 BKN021CB OVC026 M05/M06 A2982 RMK AO2 LTG DSNT NE AND S PLB0558E03 PRESFR OCNL LTGIC NE-E TS NE-E MOV NE P0001 T10501061
KOMA 200559Z 32004KT 2 1/2SM -TSSNPL SCT005 BKN021CB OVC026 M05/M06 A2987 RMK AO2 LTG DSNT NE-S PLB58 OCNL LTGIC SE TS SE MOV NE P0001 T10501061
KOMA 200552Z 33005KT 2 1/2SM -TSSN SCT005 BKN021CB OVC026 M05/M06 A2985 RMK AO2 LTG DSNT ALQDS FZDZB0455E0458SNB0458GSB05E22 TSB08 SLP122 TS SE MOV NE OCNL LTGIC SE P0001 60001 I1000 I6000 T10501061 11050 21056 400171056
KOMA 200547Z 35006KT 2 1/2SM -TSSN OVC008CB M05/M06 A2984 RMK AO2 LTG DSNT E AND SW FZDZB0455E0458SNB0458GSB05E22 TSB08 TS SE MOV NE OCNL LTGIC SE P0001 I1000
KOMA 200526Z 35006KT 1/2SM R14R/5000VP6000FT -TSSN OVC008CB M05/M06 A2984 RMK AO2 LTG DSNT SE AND S FZDZB0455E0458SNB0458GSB05E22 TSB08 TS DSNT NW MOV NE FRQ LTGIC NW P0000 I1000 T10501061
KOMA 200522Z 35005KT 3/4SM R14R/5000VP6000FT -TSSN OVC008CB M05/M06 A2985 RMK AO2 LTG DSNT SE-SW FZDZB0455E0458SNB0458GSB05E22 TSB08 TS DSNT NW MOV NE OCNL LTGIC NW P0000 I1000 T10501061
KOMA 200520Z 35005KT 1SM R14R/5000VP6000FT -TSSNGS OVC008CB M05/M06 A2985 RMK AO2 LTG DSNT SE-SW FZDZB0455E0458SNB0458GSB05 TSB08 TS DSNT NW MOV NE OCNL LTGIC NW P0000 I1000 T10501061
KOMA 200508Z COR 34009KT 2 1/2SM -TSSNGS OVC008CB M05/M07 A2985 RMK AO2 LTG DSNT E-SW FZDZB0455E0458SNB0458GSB05 TSB08 TS DSNT E MOV NE OCNL LTGIC E P0000 I1000 T10501067
KOMA 200505Z 33010KT 2 1/2SM -SNGS OVC008 M05/M07 A2985 RMK AO2 LTG DSNT E-SW FZDZB0455E0458SNB0458GSB05 P0000 I1000 T10501067
KOMA 200458Z 34008KT 2 1/2SM -SN OVC008 M05/M07 A2986 RMK AO2 LTG DSNT E-SW FZDZB55E58SNB58 PRESRR P0000 I1000 T10501067
KOMA 200455Z 34009KT 2 1/2SM -FZDZ BR OVC008 M05/M07 A2985 RMK AO2 LTG DSNT E AND SE FZDZB55 P0000 I1000 T10501067
KOMA 200452Z 33010KT 9SM OVC008 M05/M07 A2984 RMK AO2 LTG DSNT E AND SE SLP118 SNE45 P0000 T10501067
KOMA 200441Z 35009KT 8SM -SN OVC008 M05/M07 A2984 RMK AO2 P0000 T10501067
KOMA 200431Z COR 34009KT 8SM -PL OVC007 M05/M06 A2984 RMK AO2 PLB31 P0000 T10501061
KOMA 200430Z 34008KT 8SM OVC007 M05/M06 A2984 RMK AO2 T10501061
KOMA 200352Z 35010KT 10SM OVC007 M05/M07 A2985 RMK AO2 SLP121 T10501067